createdAt,value
2018-04-20T00:00:19.808Z,58.67
2018-04-20T00:01:24.856Z,58.70
2018-04-20T00:02:29.523Z,58.65
2018-04-20T00:03:34.176Z,58.64
2018-04-20T00:04:38.298Z,58.45
2018-04-20T00:05:42.832Z,58.42
2018-04-20T00:06:47.332Z,58.18
2018-04-20T00:07:51.616Z,57.88
2018-04-20T00:08:55.830Z,58.13
2018-04-20T00:10:00.038Z,57.89
2018-04-20T00:11:04.178Z,58.46
2018-04-20T00:12:08.462Z,58.48
2018-04-20T00:13:12.666Z,58.29
2018-04-20T00:14:16.831Z,58.34
2018-04-20T00:15:22.378Z,58.38
2018-04-20T00:16:27.408Z,58.28
2018-04-20T00:17:31.623Z,58.41
2018-04-20T00:18:35.738Z,58.35
2018-04-20T00:19:39.963Z,58.31
2018-04-20T00:20:44.228Z,58.38
2018-04-20T00:21:48.510Z,58.54
2018-04-20T00:22:52.962Z,58.55
2018-04-20T00:23:57.236Z,58.69
2018-04-20T00:25:01.468Z,58.80
2018-04-20T00:26:05.606Z,58.82
2018-04-20T00:27:09.900Z,58.97
2018-04-20T00:28:14.086Z,59.11
2018-04-20T00:29:19.164Z,59.25
2018-04-20T00:30:23.764Z,59.56
2018-04-20T00:31:30.482Z,59.97
2018-04-20T00:32:35.646Z,59.95
2018-04-20T00:33:39.786Z,59.93
2018-04-20T00:34:44.032Z,60.43
2018-04-20T00:35:48.524Z,60.79
2018-04-20T00:36:53.041Z,61.01
2018-04-20T00:37:57.180Z,61.08
2018-04-20T00:39:01.393Z,61.55
2018-04-20T00:40:05.588Z,61.49
2018-04-20T00:41:10.152Z,61.64
2018-04-20T00:42:14.280Z,61.54
2018-04-20T00:43:18.417Z,61.48
2018-04-20T00:44:22.629Z,61.38
2018-04-20T00:45:27.484Z,61.21
2018-04-20T00:46:31.727Z,61.15
2018-04-20T00:47:35.855Z,61.13
2018-04-20T00:48:40.015Z,61.44
2018-04-20T00:49:44.170Z,61.91
2018-04-20T00:50:48.317Z,61.96
2018-04-20T00:51:52.574Z,61.82
2018-04-20T00:52:56.722Z,61.96
2018-04-20T00:54:24.923Z,61.79
2018-04-20T00:55:29.048Z,61.68
2018-04-20T00:56:33.268Z,61.62
2018-04-20T00:57:37.413Z,61.57
2018-04-20T00:58:41.554Z,61.73
2018-04-20T00:59:45.672Z,62.29
2018-04-20T01:00:50.471Z,62.52
2018-04-20T01:01:54.704Z,62.22
2018-04-20T01:02:58.920Z,62.11
2018-04-20T01:04:03.063Z,62.00
2018-04-20T01:05:07.198Z,61.80
2018-04-20T01:06:11.344Z,61.86
2018-04-20T01:07:15.587Z,62.02
2018-04-20T01:08:19.978Z,62.04
2018-04-20T01:09:24.443Z,62.03
2018-04-20T01:10:28.632Z,62.10
2018-04-20T01:11:32.998Z,62.11
2018-04-20T01:12:37.355Z,61.94
2018-04-20T01:13:42.317Z,62.01
2018-04-20T01:14:46.459Z,62.14
2018-04-20T01:15:50.942Z,62.18
2018-04-20T01:16:55.277Z,62.43
2018-04-20T01:17:59.399Z,62.41
2018-04-20T01:19:03.569Z,62.48
2018-04-20T01:20:07.997Z,62.71
2018-04-20T01:21:12.109Z,62.69
2018-04-20T01:22:16.242Z,62.81
2018-04-20T01:23:20.707Z,62.99
2018-04-20T01:24:24.881Z,63.08
2018-04-20T01:25:29.007Z,63.20
2018-04-20T01:26:34.470Z,63.19
2018-04-20T01:27:38.599Z,63.26
2018-04-20T01:28:42.796Z,63.30
2018-04-20T01:29:46.938Z,63.39
2018-04-20T01:30:51.279Z,63.76
2018-04-20T01:31:55.490Z,63.79
2018-04-20T01:32:59.636Z,63.79
2018-04-20T01:34:03.838Z,63.99
2018-04-20T01:35:07.960Z,63.77
2018-04-20T01:36:12.111Z,63.97
2018-04-20T01:37:16.302Z,64.14
2018-04-20T01:39:36.918Z,64.17
2018-04-20T01:40:41.045Z,64.30
2018-04-20T01:41:45.259Z,64.21
2018-04-20T01:42:49.441Z,64.12
2018-04-20T01:43:53.569Z,64.25
2018-04-20T01:44:58.080Z,64.29
2018-04-20T01:46:02.501Z,64.43
2018-04-20T01:47:06.631Z,64.75
2018-04-20T01:48:10.798Z,64.93
2018-04-20T01:49:15.019Z,65.05
2018-04-20T01:50:19.157Z,65.20
2018-04-20T01:51:23.287Z,65.00
2018-04-20T01:52:27.400Z,65.19
2018-04-20T01:53:31.726Z,65.12
2018-04-20T01:54:35.846Z,65.28
2018-04-20T01:55:40.093Z,65.53
2018-04-20T01:56:44.516Z,65.69
2018-04-20T01:57:48.663Z,65.80
2018-04-20T01:58:52.923Z,66.00
2018-04-20T01:59:57.032Z,65.97
2018-04-20T02:01:01.413Z,66.00
2018-04-20T02:02:05.618Z,66.01
2018-04-20T02:03:09.822Z,66.06
2018-04-20T02:04:13.949Z,65.97
2018-04-20T02:05:18.081Z,65.94
2018-04-20T02:06:22.366Z,65.95
2018-04-20T02:07:27.241Z,66.18
2018-04-20T02:08:32.225Z,65.97
2018-04-20T02:09:36.682Z,66.40
2018-04-20T02:10:40.812Z,66.20
2018-04-20T02:11:45.046Z,66.41
2018-04-20T02:12:49.247Z,66.71
2018-04-20T02:13:53.384Z,66.86
2018-04-20T02:14:57.820Z,66.99
2018-04-20T02:16:02.343Z,67.28
2018-04-20T02:17:06.492Z,67.24
2018-04-20T02:18:10.699Z,67.44
2018-04-20T02:19:14.869Z,67.32
2018-04-20T02:20:19.007Z,67.19
2018-04-20T02:21:25.093Z,67.25
2018-04-20T02:22:29.300Z,67.29
2018-04-20T02:23:34.256Z,67.38
2018-04-20T02:24:38.365Z,67.35
2018-04-20T02:25:42.468Z,67.43
2018-04-20T02:26:46.663Z,67.32
2018-04-20T02:27:51.159Z,67.45
2018-04-20T02:28:55.278Z,67.42
2018-04-20T02:29:59.517Z,67.56
2018-04-20T02:31:03.998Z,67.79
2018-04-20T02:32:08.158Z,67.59
2018-04-20T02:33:12.293Z,67.65
2018-04-20T02:34:16.839Z,67.65
2018-04-20T02:35:20.989Z,67.64
2018-04-20T02:36:26.045Z,67.60
2018-04-20T02:37:30.165Z,67.57
2018-04-20T02:38:34.321Z,67.63
2018-04-20T02:39:38.547Z,67.75
2018-04-20T02:40:43.055Z,67.80
2018-04-20T02:41:47.213Z,67.83
2018-04-20T02:42:51.378Z,67.84
2018-04-20T02:43:55.498Z,68.21
2018-04-20T02:44:59.722Z,68.22
2018-04-20T02:46:04.145Z,68.32
2018-04-20T02:47:08.405Z,68.31
2018-04-20T02:48:12.522Z,68.38
2018-04-20T02:49:16.648Z,68.35
2018-04-20T02:50:20.906Z,68.23
2018-04-20T02:51:25.079Z,68.39
2018-04-20T02:52:30.333Z,68.40
2018-04-20T02:53:34.461Z,68.23
2018-04-20T02:54:38.595Z,68.27
2018-04-20T02:55:42.829Z,68.23
2018-04-20T02:56:47.053Z,68.31
2018-04-20T02:57:51.235Z,68.38
2018-04-20T02:58:55.665Z,68.75
2018-04-20T02:59:59.798Z,68.76
2018-04-20T03:01:05.253Z,68.95
2018-04-20T03:02:09.595Z,68.96
2018-04-20T03:03:13.746Z,69.09
2018-04-20T03:04:17.900Z,69.16
2018-04-20T03:05:22.986Z,69.08
2018-04-20T03:06:28.332Z,69.21
2018-04-20T03:07:32.504Z,69.06
2018-04-20T03:08:37.424Z,69.13
2018-04-20T03:09:41.556Z,69.39
2018-04-20T03:10:45.675Z,69.30
2018-04-20T03:11:49.799Z,69.40
2018-04-20T03:12:54.013Z,69.54
2018-04-20T03:13:58.144Z,69.53
2018-04-20T03:15:03.633Z,69.77
2018-04-20T03:16:08.228Z,69.99
2018-04-20T03:17:12.357Z,69.96
2018-04-20T03:18:16.878Z,70.01
2018-04-20T03:19:20.997Z,70.11
2018-04-20T03:20:25.186Z,69.95
2018-04-20T03:21:29.308Z,70.07
2018-04-20T03:22:33.511Z,70.03
2018-04-20T03:23:37.986Z,70.37
2018-04-20T03:24:42.118Z,70.34
2018-04-20T03:25:46.332Z,70.33
2018-04-20T03:26:50.461Z,70.38
2018-04-20T03:27:54.587Z,70.35
2018-04-20T03:28:58.716Z,70.57
2018-04-20T03:30:04.547Z,70.50
2018-04-20T03:31:08.968Z,70.41
2018-04-20T03:32:13.109Z,70.56
2018-04-20T03:33:17.308Z,70.52
2018-04-20T03:34:21.446Z,70.65
2018-04-20T03:35:25.686Z,70.70
2018-04-20T03:36:31.223Z,70.91
2018-04-20T03:37:35.459Z,71.08
2018-04-20T03:38:39.622Z,71.33
2018-04-20T03:39:43.739Z,71.23
2018-04-20T03:40:47.889Z,71.29
2018-04-20T03:41:52.118Z,71.35
2018-04-20T03:42:56.616Z,71.31
2018-04-20T03:44:00.739Z,71.37
2018-04-20T03:45:07.091Z,71.38
2018-04-20T03:47:14.033Z,71.51
2018-04-20T03:48:18.307Z,71.57
2018-04-20T03:49:22.755Z,71.77
2018-04-20T03:50:26.895Z,71.76
2018-04-20T03:51:31.052Z,72.06
2018-04-20T03:52:35.849Z,72.12
2018-04-20T03:53:39.975Z,71.88
2018-04-20T03:54:44.198Z,71.90
2018-04-20T03:55:48.649Z,71.57
2018-04-20T03:56:52.812Z,71.44
2018-04-20T03:57:56.928Z,71.51
2018-04-20T03:59:01.096Z,71.61
2018-04-20T04:00:07.263Z,71.73
2018-04-20T04:01:11.535Z,71.77
2018-04-20T04:02:16.002Z,71.80
2018-04-20T04:03:20.122Z,71.73
2018-04-20T04:04:24.324Z,71.80
2018-04-20T04:05:28.459Z,71.85
2018-04-20T04:06:32.680Z,72.15
2018-04-20T04:07:37.702Z,72.10
2018-04-20T04:08:41.823Z,72.08
2018-04-20T04:09:45.928Z,72.10
2018-04-20T04:10:50.122Z,71.88
2018-04-20T04:11:54.332Z,71.97
2018-04-20T04:12:58.468Z,72.10
2018-04-20T04:14:02.902Z,72.06
2018-04-20T04:15:07.083Z,72.16
2018-04-20T04:16:11.996Z,72.49
2018-04-20T04:19:28.950Z,72.50
2018-04-20T04:20:37.320Z,72.40
2018-04-20T04:21:51.266Z,72.25
2018-04-20T04:25:08.320Z,72.37
2018-04-20T04:28:30.378Z,72.30
2018-04-20T04:29:34.559Z,72.38
2018-04-20T04:30:39.079Z,72.87
2018-04-20T04:31:43.204Z,72.93
2018-04-20T04:32:47.433Z,73.12
2018-04-20T04:33:51.611Z,72.99
2018-04-20T04:34:55.801Z,72.96
2018-04-20T04:35:59.937Z,72.78
2018-04-20T04:37:04.168Z,72.84
2018-04-20T04:38:08.320Z,72.68
2018-04-20T04:39:12.547Z,72.56
2018-04-20T04:40:16.696Z,72.71
2018-04-20T04:41:20.898Z,72.79
2018-04-20T04:42:25.073Z,72.93
2018-04-20T04:43:29.527Z,73.00
2018-04-20T04:44:34.228Z,72.67
2018-04-20T04:45:39.017Z,73.07
2018-04-20T04:46:43.168Z,72.94
2018-04-20T04:47:47.322Z,72.57
2018-04-20T04:48:51.470Z,72.36
2018-04-20T04:49:55.922Z,72.15
2018-04-20T04:51:00.180Z,72.07
2018-04-20T04:52:04.314Z,72.07
2018-04-20T04:53:08.463Z,72.09
2018-04-20T04:54:12.585Z,71.80
2018-04-20T04:55:16.821Z,71.46
2018-04-20T04:56:21.300Z,71.35
2018-04-20T04:57:25.502Z,71.49
2018-04-20T04:58:29.655Z,71.21
2018-04-20T04:59:34.009Z,71.14
2018-04-20T05:00:38.497Z,70.80
2018-04-20T05:01:42.653Z,70.52
2018-04-20T05:02:47.188Z,70.21
2018-04-20T05:03:51.322Z,69.96
2018-04-20T05:04:55.495Z,69.51
2018-04-20T05:05:59.649Z,68.88
2018-04-20T05:07:03.901Z,68.81
2018-04-20T05:08:08.110Z,69.08
2018-04-20T05:09:12.629Z,68.84
2018-04-20T05:10:16.761Z,68.52
2018-04-20T05:11:20.935Z,68.50
2018-04-20T05:12:25.129Z,68.25
2018-04-20T05:13:29.236Z,67.78
2018-04-20T05:14:33.474Z,67.07
2018-04-20T05:15:38.903Z,65.82
2018-04-20T05:16:43.060Z,65.19
2018-04-20T05:17:47.237Z,64.41
2018-04-20T05:18:51.472Z,64.10
2018-04-20T05:19:55.590Z,63.79
2018-04-20T05:20:59.794Z,63.58
2018-04-20T05:22:03.950Z,63.13
2018-04-20T05:23:08.090Z,63.07
2018-04-20T05:24:12.321Z,62.83
2018-04-20T05:25:16.464Z,62.92
2018-04-20T05:26:20.735Z,62.47
2018-04-20T05:27:25.237Z,62.40
2018-04-20T05:28:29.460Z,62.14
2018-04-20T05:29:33.612Z,62.07
2018-04-20T05:30:38.528Z,61.79
2018-04-20T05:31:42.654Z,61.71
2018-04-20T05:32:46.880Z,61.73
2018-04-20T05:33:51.088Z,61.47
2018-04-20T05:34:55.274Z,61.26
2018-04-20T05:35:59.462Z,61.17
2018-04-20T05:37:03.674Z,61.04
2018-04-20T05:38:07.851Z,60.49
2018-04-20T05:39:12.370Z,60.83
2018-04-20T05:40:16.512Z,60.66
2018-04-20T05:41:20.757Z,60.79
2018-04-20T05:42:25.092Z,60.33
2018-04-20T05:43:29.326Z,59.62
2018-04-20T05:44:33.557Z,59.28
2018-04-20T05:45:39.372Z,58.82
2018-04-20T05:46:43.686Z,58.09
2018-04-20T05:47:47.904Z,58.13
2018-04-20T05:48:52.175Z,57.48
2018-04-20T05:49:56.502Z,57.11
2018-04-20T05:51:00.727Z,57.51
2018-04-20T05:52:05.488Z,57.12
2018-04-20T05:53:09.726Z,55.40
2018-04-20T05:54:13.967Z,54.47
2018-04-20T05:55:18.301Z,54.95
2018-04-20T05:56:22.621Z,55.87
2018-04-20T05:57:27.284Z,55.92
2018-04-20T05:58:31.551Z,55.14
2018-04-20T05:59:35.784Z,54.59
2018-04-20T06:00:40.346Z,54.89
2018-04-20T06:01:45.270Z,53.87
2018-04-20T06:02:49.697Z,53.82
2018-04-20T06:03:54.279Z,53.91
2018-04-20T06:04:58.481Z,53.17
2018-04-20T06:06:02.723Z,54.16
2018-04-20T06:07:07.037Z,52.67
2018-04-20T06:08:11.378Z,52.06
2018-04-20T06:09:15.677Z,51.77
2018-04-20T06:10:20.272Z,51.29
2018-04-20T06:11:24.578Z,51.23
2018-04-20T06:12:28.830Z,51.67
2018-04-20T06:13:33.159Z,51.84
2018-04-20T06:14:37.413Z,51.99
2018-04-20T06:15:42.422Z,52.52
2018-04-20T06:16:47.427Z,52.15
2018-04-20T06:17:51.823Z,51.98
2018-04-20T06:18:56.145Z,51.43
2018-04-20T06:20:00.650Z,51.13
2018-04-20T06:21:04.881Z,51.03
2018-04-20T06:22:09.141Z,51.07
2018-04-20T06:23:13.617Z,50.18
2018-04-20T06:24:17.937Z,49.12
2018-04-20T06:25:22.171Z,48.68
2018-04-20T06:26:26.851Z,48.47
2018-04-20T06:27:31.176Z,48.44
2018-04-20T06:28:35.435Z,47.97
2018-04-20T06:29:40.445Z,48.34
2018-04-20T06:30:44.846Z,48.57
2018-04-20T06:31:49.005Z,46.90
2018-04-20T06:32:53.193Z,47.56
2018-04-20T06:33:57.475Z,49.21
2018-04-20T06:35:01.720Z,50.22
2018-04-20T06:36:06.249Z,50.52
2018-04-20T06:37:10.405Z,51.53
2018-04-20T06:38:14.542Z,49.38
2018-04-20T06:39:18.682Z,49.77
2018-04-20T06:40:22.907Z,50.12
2018-04-20T06:41:27.065Z,49.81
2018-04-20T06:42:31.601Z,49.27
2018-04-20T06:43:35.738Z,48.48
2018-04-20T06:44:39.945Z,48.48
2018-04-20T06:45:44.209Z,47.99
2018-04-20T06:46:48.385Z,47.73
2018-04-20T06:47:52.657Z,48.17
2018-04-20T06:48:56.823Z,47.48
2018-04-20T06:50:00.956Z,46.72
2018-04-20T06:51:05.173Z,47.67
2018-04-20T06:52:09.327Z,48.33
2018-04-20T06:53:13.863Z,47.45
2018-04-20T06:54:18.046Z,48.12
2018-04-20T06:55:22.279Z,48.49
2018-04-20T06:56:26.480Z,47.92
2018-04-20T06:57:30.653Z,48.02
2018-04-20T06:58:35.005Z,47.13
2018-04-20T06:59:40.367Z,46.82
2018-04-20T07:00:45.360Z,46.58
2018-04-20T07:01:49.855Z,45.73
2018-04-20T07:02:54.005Z,47.09
2018-04-20T07:03:58.150Z,46.69
2018-04-20T07:05:02.309Z,47.54
2018-04-20T07:06:06.768Z,48.63
2018-04-20T07:07:11.993Z,47.91
2018-04-20T07:08:16.169Z,48.01
2018-04-20T07:09:20.344Z,48.00
2018-04-20T07:10:24.591Z,47.39
2018-04-20T07:11:28.818Z,46.45
2018-04-20T07:12:33.264Z,46.30
2018-04-20T07:13:37.534Z,43.74
2018-04-20T07:14:42.473Z,44.57
2018-04-20T07:15:46.659Z,45.42
2018-04-20T07:16:50.783Z,43.93
2018-04-20T07:17:54.935Z,44.24
2018-04-20T07:18:59.162Z,44.43
2018-04-20T07:20:03.337Z,45.54
2018-04-20T07:21:07.488Z,45.44
2018-04-20T07:22:11.628Z,44.85
2018-04-20T07:23:15.859Z,45.28
2018-04-20T07:24:20.143Z,43.33
2018-04-20T07:25:24.654Z,44.48
2018-04-20T07:26:28.926Z,44.93
2018-04-20T07:27:33.074Z,44.39
2018-04-20T07:28:37.227Z,43.20
2018-04-20T07:29:41.363Z,42.72
2018-04-20T07:30:45.889Z,41.94
2018-04-20T07:31:51.466Z,41.95
2018-04-20T07:32:55.606Z,42.99
2018-04-20T07:34:00.051Z,42.82
2018-04-20T07:35:04.175Z,42.66
2018-04-20T07:36:08.338Z,41.69
2018-04-20T07:37:12.599Z,41.75
2018-04-20T07:38:17.047Z,42.28
2018-04-20T07:39:21.194Z,43.84
2018-04-20T07:40:25.335Z,44.13
2018-04-20T07:41:29.563Z,44.45
2018-04-20T07:42:33.719Z,43.44
2018-04-20T07:43:37.929Z,43.67
2018-04-20T07:44:42.375Z,43.93
2018-04-20T07:45:46.887Z,43.51
2018-04-20T07:46:52.025Z,44.35
2018-04-20T07:47:56.191Z,44.14
2018-04-20T07:49:00.356Z,44.11
2018-04-20T07:50:04.517Z,43.59
2018-04-20T07:51:09.009Z,43.36
2018-04-20T07:52:13.140Z,41.88
2018-04-20T07:53:17.282Z,42.10
2018-04-20T07:54:21.424Z,42.75
2018-04-20T07:55:25.652Z,42.81
2018-04-20T07:56:29.889Z,43.58
2018-04-20T07:57:34.393Z,42.76
2018-04-20T07:58:38.674Z,41.99
2018-04-20T07:59:43.046Z,42.69
2018-04-20T08:00:47.424Z,42.08
2018-04-20T08:01:52.324Z,41.52
2018-04-20T08:02:56.570Z,41.63
2018-04-20T08:04:00.720Z,41.35
2018-04-20T08:05:04.977Z,41.65
2018-04-20T08:06:09.125Z,41.96
2018-04-20T08:07:13.265Z,41.89
2018-04-20T08:08:17.608Z,42.57
2018-04-20T08:09:21.731Z,42.61
2018-04-20T08:10:26.287Z,41.68
2018-04-20T08:11:30.395Z,41.71
2018-04-20T08:12:34.590Z,42.59
2018-04-20T08:13:38.773Z,43.02
2018-04-20T08:14:42.955Z,43.05
2018-04-20T08:15:47.435Z,42.51
2018-04-20T08:16:52.473Z,43.09
2018-04-20T08:17:56.621Z,42.87
2018-04-20T08:19:00.927Z,42.77
2018-04-20T08:20:05.128Z,42.94
2018-04-20T08:21:09.301Z,43.06
2018-04-20T08:22:13.565Z,43.20
2018-04-20T08:23:18.077Z,41.93
2018-04-20T08:24:22.212Z,41.53
2018-04-20T08:25:26.387Z,41.19
2018-04-20T08:26:30.612Z,40.95
2018-04-20T08:27:34.795Z,40.44
2018-04-20T08:28:39.069Z,40.06
2018-04-20T08:29:43.203Z,39.51
2018-04-20T08:30:47.687Z,40.69
2018-04-20T08:31:51.825Z,40.79
2018-04-20T08:32:56.617Z,41.80
2018-04-20T08:34:00.818Z,41.65
2018-04-20T08:35:05.093Z,41.90
2018-04-20T08:36:09.602Z,41.26
2018-04-20T08:37:13.759Z,41.31
2018-04-20T08:38:17.920Z,40.60
2018-04-20T08:39:22.140Z,40.41
2018-04-20T08:40:26.356Z,40.36
2018-04-20T08:41:30.514Z,41.02
2018-04-20T08:42:34.967Z,40.61
2018-04-20T08:43:39.323Z,41.00
2018-04-20T08:44:43.535Z,42.32
2018-04-20T08:45:47.744Z,42.51
2018-04-20T08:46:51.935Z,41.31
2018-04-20T08:47:56.181Z,40.47
2018-04-20T08:49:00.854Z,40.79
2018-04-20T08:50:05.017Z,40.82
2018-04-20T08:51:09.285Z,40.76
2018-04-20T08:52:13.462Z,38.90
2018-04-20T08:53:17.622Z,40.52
2018-04-20T08:54:21.862Z,41.20
2018-04-20T08:55:26.419Z,40.99
2018-04-20T08:56:30.549Z,40.33
2018-04-20T08:57:34.694Z,39.75
2018-04-20T08:58:38.997Z,40.81
2018-04-20T08:59:43.233Z,39.75
2018-04-20T09:00:47.698Z,39.83
2018-04-20T09:01:51.881Z,39.30
2018-04-20T09:02:56.038Z,39.03
2018-04-20T09:04:00.575Z,39.37
2018-04-20T09:05:04.746Z,39.10
2018-04-20T09:06:08.931Z,39.09
2018-04-20T09:07:13.270Z,39.08
2018-04-20T09:08:17.438Z,37.53
2018-04-20T09:09:21.809Z,37.67
2018-04-20T09:10:25.973Z,37.62
2018-04-20T09:11:30.126Z,38.34
2018-04-20T09:12:34.670Z,37.12
2018-04-20T09:13:38.914Z,36.62
2018-04-20T09:14:43.107Z,36.71
2018-04-20T09:15:47.682Z,36.37
2018-04-20T09:16:52.050Z,36.77
2018-04-20T09:17:57.865Z,37.37
2018-04-20T09:19:03.790Z,36.79
2018-04-20T09:20:08.236Z,35.87
2018-04-20T09:21:12.581Z,36.25
2018-04-20T09:22:16.986Z,37.09
2018-04-20T09:23:21.235Z,37.45
2018-04-20T09:24:25.497Z,37.33
2018-04-20T09:25:29.669Z,36.97
2018-04-20T09:26:33.935Z,36.91
2018-04-20T09:27:38.123Z,36.08
2018-04-20T09:28:42.289Z,35.92
2018-04-20T09:29:46.538Z,35.12
2018-04-20T09:30:50.929Z,35.67
2018-04-20T09:31:55.069Z,36.63
2018-04-20T09:32:59.274Z,36.82
2018-04-20T09:34:03.514Z,37.16
2018-04-20T09:35:07.668Z,36.94
2018-04-20T09:36:11.938Z,36.89
2018-04-20T09:37:16.199Z,37.05
2018-04-20T09:38:20.359Z,37.86
2018-04-20T09:39:24.496Z,37.18
2018-04-20T09:40:28.646Z,37.07
2018-04-20T09:41:32.886Z,36.48
2018-04-20T09:42:37.194Z,36.71
2018-04-20T09:43:41.427Z,37.54
2018-04-20T09:44:45.588Z,37.72
2018-04-20T09:45:50.022Z,37.47
2018-04-20T09:46:55.385Z,37.14
2018-04-20T09:47:59.537Z,35.95
2018-04-20T09:49:03.689Z,35.97
2018-04-20T09:50:07.844Z,36.24
2018-04-20T09:51:12.127Z,36.36
2018-04-20T09:52:16.554Z,35.93
2018-04-20T09:53:20.752Z,36.61
2018-04-20T09:54:25.405Z,35.64
2018-04-20T09:55:30.000Z,35.61
2018-04-20T09:56:34.242Z,34.31
2018-04-20T09:57:38.483Z,34.78
2018-04-20T09:58:42.997Z,35.11
2018-04-20T09:59:47.211Z,33.23
2018-04-20T10:00:53.215Z,33.92
2018-04-20T10:01:57.363Z,32.36
2018-04-20T10:03:05.630Z,33.91
2018-04-20T10:04:13.793Z,35.07
2018-04-20T10:05:21.973Z,35.60
2018-04-20T10:06:26.205Z,35.42
2018-04-20T10:07:30.372Z,34.88
2018-04-20T10:08:34.544Z,34.83
2018-04-20T10:09:38.734Z,34.61
2018-04-20T10:10:42.963Z,35.25
2018-04-20T10:11:47.137Z,35.10
2018-04-20T10:12:51.454Z,35.48
2018-04-20T10:13:55.692Z,34.96
2018-04-20T10:14:59.850Z,35.57
2018-04-20T10:16:04.258Z,35.27
2018-04-20T10:17:09.075Z,34.72
2018-04-20T10:18:13.758Z,34.60
2018-04-20T10:19:17.957Z,34.17
2018-04-20T10:20:22.104Z,33.69
2018-04-20T10:21:26.229Z,33.83
2018-04-20T10:22:30.437Z,32.90
2018-04-20T10:23:34.862Z,32.17
2018-04-20T10:24:39.177Z,31.72
2018-04-20T10:25:43.337Z,31.36
2018-04-20T10:26:47.521Z,32.05
2018-04-20T10:27:51.708Z,30.99
2018-04-20T10:28:56.453Z,30.55
2018-04-20T10:30:03.386Z,31.11
2018-04-20T10:31:07.675Z,32.18
2018-04-20T10:32:11.822Z,32.96
2018-04-20T10:33:16.105Z,33.26
2018-04-20T10:34:20.291Z,32.03
2018-04-20T10:35:24.660Z,32.38
2018-04-20T10:36:29.102Z,32.28
2018-04-20T10:37:33.246Z,32.13
2018-04-20T10:38:37.438Z,32.21
2018-04-20T10:39:41.574Z,32.12
2018-04-20T10:40:45.726Z,30.78
2018-04-20T10:41:50.228Z,31.06
2018-04-20T10:42:54.496Z,31.05
2018-04-20T10:43:58.637Z,30.19
2018-04-20T10:45:06.083Z,30.55
2018-04-20T10:46:10.285Z,30.48
2018-04-20T10:47:14.396Z,30.18
2018-04-20T10:48:18.807Z,29.80
2018-04-20T10:49:22.919Z,31.44
2018-04-20T10:50:27.148Z,30.00
2018-04-20T10:51:31.257Z,31.11
2018-04-20T10:52:35.421Z,30.32
2018-04-20T10:53:39.667Z,28.82
2018-04-20T10:54:44.135Z,29.16
2018-04-20T10:55:48.400Z,29.76
2018-04-20T10:56:52.667Z,30.77
2018-04-20T10:57:56.853Z,31.15
2018-04-20T10:59:01.860Z,30.61
2018-04-20T11:00:08.798Z,31.12
2018-04-20T11:01:13.162Z,30.30
2018-04-20T11:02:17.309Z,29.07
2018-04-20T11:03:21.484Z,27.13
2018-04-20T11:04:25.642Z,27.43
2018-04-20T11:05:29.884Z,28.21
2018-04-20T11:06:34.035Z,27.64
2018-04-20T11:07:38.206Z,27.49
2018-04-20T11:08:42.445Z,27.54
2018-04-20T11:09:46.594Z,28.05
2018-04-20T11:10:50.930Z,28.33
2018-04-20T11:11:55.258Z,26.20
2018-04-20T11:12:59.785Z,26.33
2018-04-20T11:14:04.750Z,26.86
2018-04-20T11:15:09.750Z,27.27
2018-04-20T11:16:13.989Z,26.97
2018-04-20T11:17:18.135Z,28.03
2018-04-20T11:18:22.402Z,27.37
2018-04-20T11:19:26.525Z,24.78
2018-04-20T11:20:30.775Z,25.03
2018-04-20T11:21:35.053Z,25.66
2018-04-20T11:22:39.286Z,26.39
2018-04-20T11:23:43.451Z,26.75
2018-04-20T11:24:47.938Z,26.60
2018-04-20T11:25:52.356Z,25.55
2018-04-20T11:26:56.513Z,25.25
2018-04-20T11:28:00.717Z,26.76
2018-04-20T11:29:04.869Z,26.02
2018-04-20T11:30:09.019Z,26.17
2018-04-20T11:31:13.865Z,26.22
2018-04-20T11:32:18.085Z,26.35
2018-04-20T11:33:22.193Z,26.45
2018-04-20T11:34:26.501Z,25.01
2018-04-20T11:35:30.624Z,24.96
2018-04-20T11:36:35.083Z,25.09
2018-04-20T11:37:39.383Z,24.91
2018-04-20T11:38:44.034Z,24.87
2018-04-20T11:39:48.160Z,25.36
2018-04-20T11:40:52.481Z,25.37
2018-04-20T11:41:56.609Z,26.09
2018-04-20T11:43:01.163Z,26.00
2018-04-20T11:44:05.373Z,26.01
2018-04-20T11:45:10.532Z,25.91
2018-04-20T11:46:16.299Z,25.99
2018-04-20T11:47:21.537Z,25.73
2018-04-20T11:48:25.710Z,25.49
2018-04-20T11:49:30.274Z,24.19
2018-04-20T11:50:34.676Z,24.57
2018-04-20T11:51:39.184Z,23.61
2018-04-20T11:52:43.416Z,24.67
2018-04-20T11:53:47.683Z,25.79
2018-04-20T11:54:52.013Z,26.31
2018-04-20T11:55:56.483Z,26.25
2018-04-20T11:57:00.671Z,25.85
2018-04-20T11:58:05.800Z,25.87
2018-04-20T11:59:10.022Z,25.80
2018-04-20T12:00:16.410Z,25.78
2018-04-20T12:01:20.575Z,26.71
2018-04-20T12:02:24.854Z,26.55
2018-04-20T12:03:28.996Z,26.29
2018-04-20T12:04:33.216Z,26.29
2018-04-20T12:05:37.384Z,26.21
2018-04-20T12:06:41.524Z,26.56
2018-04-20T12:07:46.060Z,24.90
2018-04-20T12:08:50.345Z,24.96
2018-04-20T12:09:55.044Z,26.13
2018-04-20T12:10:59.300Z,25.57
2018-04-20T12:12:04.249Z,24.40
2018-04-20T12:13:08.404Z,23.91
2018-04-20T12:14:13.524Z,23.35
2018-04-20T12:15:17.969Z,22.97
2018-04-20T12:16:22.146Z,23.37
2018-04-20T12:17:26.292Z,24.12
2018-04-20T12:18:30.694Z,24.94
2018-04-20T12:19:34.838Z,25.03
2018-04-20T12:20:39.496Z,24.45
2018-04-20T12:21:43.637Z,24.80
2018-04-20T12:22:47.824Z,25.34
2018-04-20T12:23:52.237Z,25.02
2018-04-20T12:24:56.429Z,24.83
2018-04-20T12:26:00.686Z,25.63
2018-04-20T12:27:05.747Z,25.22
2018-04-20T12:28:09.875Z,25.08
2018-04-20T12:29:14.608Z,23.81
2018-04-20T12:30:18.974Z,23.43
2018-04-20T12:31:23.379Z,24.12
2018-04-20T12:32:27.621Z,24.49
2018-04-20T12:33:31.955Z,24.67
2018-04-20T12:34:36.193Z,23.97
2018-04-20T12:35:40.333Z,23.66
2018-04-20T12:36:44.466Z,23.85
2018-04-20T12:37:48.635Z,23.78
2018-04-20T12:38:53.377Z,23.48
2018-04-20T12:39:57.601Z,23.59
2018-04-20T12:41:01.831Z,23.17
2018-04-20T12:42:06.351Z,24.16
2018-04-20T12:43:10.661Z,24.32
2018-04-20T12:44:15.457Z,24.31
2018-04-20T12:45:22.435Z,24.58
2018-04-20T12:46:26.573Z,24.43
2018-04-20T12:47:30.720Z,24.30
2018-04-20T12:48:34.943Z,24.17
2018-04-20T12:49:39.144Z,24.38
2018-04-20T12:50:43.395Z,24.85
2018-04-20T12:51:47.863Z,25.07
2018-04-20T12:52:52.259Z,25.63
2018-04-20T12:53:56.571Z,25.57
2018-04-20T12:55:00.723Z,24.78
2018-04-20T12:56:04.905Z,24.74
2018-04-20T12:57:09.047Z,24.43
2018-04-20T12:58:13.313Z,24.55
2018-04-20T12:59:17.461Z,24.91
2018-04-20T13:00:21.781Z,24.74
2018-04-20T13:01:26.277Z,23.81
2018-04-20T13:02:30.442Z,24.38
2018-04-20T13:03:34.586Z,23.80
2018-04-20T13:04:38.734Z,24.80
2018-04-20T13:05:42.868Z,24.58
2018-04-20T13:06:47.109Z,24.32
2018-04-20T13:07:51.323Z,24.79
2018-04-20T13:08:55.551Z,24.88
2018-04-20T13:09:59.676Z,24.36
2018-04-20T13:11:03.805Z,24.75
2018-04-20T13:12:08.982Z,24.10
2018-04-20T13:13:13.349Z,22.99
2018-04-20T13:14:17.826Z,21.82
2018-04-20T13:15:22.464Z,22.94
2018-04-20T13:16:26.688Z,23.53
2018-04-20T13:17:31.082Z,23.15
2018-04-20T13:18:35.428Z,23.63
2018-04-20T13:19:39.856Z,25.12
2018-04-20T13:20:44.501Z,24.35
2018-04-20T13:21:48.672Z,24.33
2018-04-20T13:22:52.909Z,25.07
2018-04-20T13:23:57.074Z,24.16
2018-04-20T13:25:02.088Z,24.60
2018-04-20T13:26:07.024Z,24.90
2018-04-20T13:27:11.558Z,23.83
2018-04-20T13:28:15.804Z,23.83
2018-04-20T13:29:20.153Z,23.28
2018-04-20T13:30:24.334Z,22.45
2018-04-20T13:31:29.364Z,22.23
2018-04-20T13:36:26.192Z,22.21
2018-04-20T13:37:34.949Z,21.56
2018-04-20T13:38:41.763Z,21.47
2018-04-20T13:39:48.405Z,21.97
2018-04-20T13:40:56.006Z,23.30
2018-04-20T13:42:01.622Z,23.73
2018-04-20T13:43:08.211Z,23.90
2018-04-20T13:44:13.804Z,23.07
2018-04-20T13:45:19.618Z,24.18
2018-04-20T13:47:58.255Z,23.62
2018-04-20T13:49:07.128Z,23.90
2018-04-20T13:50:14.814Z,24.01
2018-04-20T13:51:20.221Z,25.70
2018-04-20T13:52:27.735Z,27.12
2018-04-20T13:53:32.436Z,27.96
2018-04-20T13:54:40.469Z,28.04
2018-04-20T13:55:45.348Z,26.66
2018-04-20T13:56:51.866Z,24.87
2018-04-20T13:57:56.033Z,23.75
2018-04-20T13:59:01.217Z,22.64
2018-04-20T14:00:09.698Z,21.94
2018-04-20T14:01:15.339Z,21.65
2018-04-20T14:02:19.549Z,22.26
2018-04-20T14:03:27.968Z,23.61
2018-04-20T14:04:32.538Z,23.62